Terminal Aerodrome Forecast
Issued by NWS Sioux Falls, SD

Home | Current Version | Previous Version | Graphics & Text | Print | Product List | Glossary On
Versions: 1 2 3 4 5 6 7 8 9 10 11 12 13 14 15 16 17 18 19 20 21 22 23 24 25 26 27 28 29 30 31 32 33 34 35 36 37 38
000
FTUS43 KFSD 171655 AAC
TAFSUX
TAF AMD
KSUX 171655Z 1717/1812 30011KT P6SM BKN011
     FM171730 31007KT P6SM SKC
     FM172000 27006KT P6SM SKC
     FM172300 VRB04KT P6SM SKC
     FM180700 15006KT P6SM FEW180=

USA.gov is the U.S. government's official web portal to all federal, state and local government web resources and services.